Time;durP1;ratioP1;P1;durP2;ratioP2;P2;SDS_P1;SDS_P2;PMS_P1;PMS_P2;Temp;Humidity;BMP_temperature;BMP_pressure;BME280_temperature;BME280_humidity;BME280_pressure;Samples;Min_cycle;Max_cycle;Signal;HPM_P1;HPM_P2
2021/09/21 00:01:03;;;;;;;4.07;2.90;;;12.30;90.00;;;;;;5032856;28;20065;-68
2021/09/21 00:03:29;;;;;;;4.05;2.80;;;12.30;90.10;;;;;;5032567;28;20467;-68
2021/09/21 00:05:55;;;;;;;3.97;3.03;;;12.30;90.00;;;;;;5033707;28;20061;-69
2021/09/21 00:08:20;;;;;;;4.00;2.92;;;12.30;90.00;;;;;;5031961;28;20022;-69
2021/09/21 00:10:46;;;;;;;6.07;3.28;;;12.30;90.00;;;;;;5032307;28;20030;-68
2021/09/21 00:13:12;;;;;;;3.55;2.55;;;12.30;90.00;;;;;;5033555;28;20033;-68
2021/09/21 00:15:37;;;;;;;4.35;2.90;;;12.40;90.00;;;;;;5033287;28;20032;-68
2021/09/21 00:18:03;;;;;;;12.82;3.15;;;12.30;89.80;;;;;;5033477;28;20021;-68
2021/09/21 00:20:29;;;;;;;4.30;2.90;;;12.30;89.70;;;;;;5033506;28;20069;-68
2021/09/21 00:22:54;;;;;;;5.38;3.22;;;12.30;89.80;;;;;;5033372;28;20029;-68
2021/09/21 00:25:20;;;;;;;5.13;3.20;;;12.30;90.10;;;;;;5033400;28;20026;-68
2021/09/21 00:27:46;;;;;;;4.60;3.30;;;12.20;90.10;;;;;;5033160;28;20414;-69
2021/09/21 00:30:14;;;;;;;4.82;3.33;;;12.20;90.50;;;;;;5033243;28;20132;-68
2021/09/21 00:32:43;;;;;;;4.28;3.15;;;12.10;90.80;;;;;;5032241;28;20038;-68
2021/09/21 00:35:09;;;;;;;6.22;3.20;;;12.10;90.90;;;;;;5031917;28;20037;-68
2021/09/21 00:37:37;;;;;;;4.70;3.20;;;12.10;90.90;;;;;;5040030;28;20028;-68
2021/09/21 00:40:04;;;;;;;4.28;3.33;;;12.10;90.90;;;;;;5053144;28;20029;-70
2021/09/21 00:42:31;;;;;;;6.50;3.50;;;12.10;90.90;;;;;;5052752;28;20110;-69
2021/09/21 00:45:03;;;;;;;4.60;3.30;;;12.10;90.80;;;;;;5051905;28;20474;-67
2021/09/21 00:47:30;;;;;;;4.20;3.00;;;12.10;90.90;;;;;;5051885;28;20024;-68
2021/09/21 00:49:56;;;;;;;4.50;3.10;;;12.10;90.90;;;;;;5051577;28;20040;-69
2021/09/21 00:52:22;;;;;;;5.13;3.05;;;12.10;91.10;;;;;;5055481;28;20028;-68
2021/09/21 00:54:48;;;;;;;3.70;2.60;;;12.10;91.00;;;;;;5056824;28;20021;-69
2021/09/21 00:57:13;;;;;;;3.40;2.65;;;12.00;91.20;;;;;;5056011;28;20426;-68
2021/09/21 00:59:39;;;;;;;4.90;3.38;;;12.00;91.30;;;;;;5056455;28;20025;-68
2021/09/21 01:02:05;;;;;;;4.50;3.00;;;12.00;91.30;;;;;;5056771;28;20509;-67
2021/09/21 01:04:32;;;;;;;3.53;2.50;;;12.00;91.40;;;;;;5056310;28;20025;-68
2021/09/21 01:06:58;;;;;;;3.97;2.80;;;12.00;91.40;;;;;;5056115;28;20044;-70
2021/09/21 01:09:26;;;;;;;4.00;3.00;;;11.90;91.40;;;;;;5056149;28;20431;-70
2021/09/21 01:11:56;;;;;;;3.67;2.60;;;11.90;91.60;;;;;;5056162;28;20029;-68
2021/09/21 01:14:22;;;;;;;3.45;2.60;;;11.90;91.60;;;;;;5055268;28;20041;-68
2021/09/21 01:16:50;;;;;;;4.63;2.85;;;11.90;91.60;;;;;;5054977;28;20028;-68
2021/09/21 01:19:16;;;;;;;3.55;2.50;;;11.90;91.40;;;;;;5054984;28;20025;-68
2021/09/21 01:21:43;;;;;;;3.70;2.83;;;11.90;91.50;;;;;;5055124;28;20505;-68
2021/09/21 01:24:11;;;;;;;4.65;2.60;;;11.80;91.50;;;;;;5056127;28;20029;-68
2021/09/21 01:26:36;;;;;;;3.92;2.17;;;11.80;91.60;;;;;;5054956;28;20032;-68
2021/09/21 01:29:03;;;;;;;2.90;2.10;;;11.80;91.50;;;;;;5055869;28;20037;-68
2021/09/21 01:31:29;;;;;;;3.40;2.40;;;11.80;91.50;;;;;;5054750;28;20112;-67
2021/09/21 01:33:55;;;;;;;2.83;2.00;;;11.80;91.60;;;;;;5054506;28;20144;-68
2021/09/21 01:36:23;;;;;;;4.13;1.80;;;11.80;91.50;;;;;;5055831;28;20033;-68
2021/09/21 01:38:50;;;;;;;2.67;1.92;;;11.80;91.40;;;;;;5055806;28;20033;-68
2021/09/21 01:41:16;;;;;;;2.53;1.70;;;11.80;91.30;;;;;;5055976;28;20024;-68
2021/09/21 01:43:44;;;;;;;2.58;1.80;;;11.70;91.30;;;;;;5055862;28;20482;-67
2021/09/21 01:46:11;;;;;;;3.20;1.77;;;11.70;91.60;;;;;;5055860;28;20065;-70
2021/09/21 01:48:37;;;;;;;2.85;2.10;;;11.70;91.70;;;;;;5054414;28;20028;-67
2021/09/21 01:51:08;;;;;;;4.30;1.92;;;11.70;91.70;;;;;;5055044;28;20036;-68
2021/09/21 01:58:56;;;;;;;2.80;1.92;;;11.70;92.00;;;;;;5055607;28;20103;-69
2021/09/21 02:01:27;;;;;;;2.60;1.73;;;11.70;92.30;;;;;;5054144;28;20127;-68
2021/09/21 02:03:55;;;;;;;2.42;1.83;;;11.70;92.40;;;;;;5055564;28;20029;-68
2021/09/21 02:06:32;;;;;;;1.65;1.20;;;11.60;92.50;;;;;;5055263;28;20053;-68
2021/09/21 02:08:57;;;;;;;3.40;1.98;;;11.60;92.60;;;;;;5055327;28;20033;-68
2021/09/21 02:11:23;;;;;;;1.90;1.50;;;11.50;93.20;;;;;;5054111;28;20182;-69
2021/09/21 02:13:49;;;;;;;2.65;1.30;;;11.50;93.30;;;;;;5055512;28;20031;-65
2021/09/21 02:16:15;;;;;;;1.83;1.48;;;11.50;93.60;;;;;;5055266;28;20096;-65
2021/09/21 02:18:40;;;;;;;1.88;1.50;;;11.40;93.90;;;;;;5054252;28;20036;-65
2021/09/21 02:21:06;;;;;;;2.20;1.40;;;11.40;94.10;;;;;;5055357;28;20017;-66
2021/09/21 02:23:32;;;;;;;1.55;1.33;;;11.40;94.30;;;;;;5054170;28;20386;-65
2021/09/21 02:25:57;;;;;;;1.73;1.23;;;11.40;94.40;;;;;;5051740;28;20117;-66
2021/09/21 02:28:23;;;;;;;1.52;1.20;;;11.40;94.50;;;;;;5055098;28;20029;-66
2021/09/21 02:30:49;;;;;;;2.13;1.30;;;11.40;94.60;;;;;;5053546;28;20032;-66
2021/09/21 02:33:14;;;;;;;2.80;1.70;;;11.30;94.90;;;;;;5055055;28;20029;-66
2021/09/21 02:35:40;;;;;;;2.50;1.50;;;11.40;95.00;;;;;;5053926;28;20079;-67
2021/09/21 02:38:07;;;;;;;2.17;1.25;;;11.30;95.00;;;;;;5054968;28;20017;-65
2021/09/21 02:40:32;;;;;;;1.40;1.20;;;11.30;95.30;;;;;;5053213;28;20033;-65
2021/09/21 02:42:58;;;;;;;1.73;1.27;;;11.30;95.60;;;;;;5054936;28;20498;-66
2021/09/21 02:45:24;;;;;;;1.42;1.20;;;11.30;95.80;;;;;;5054712;28;20065;-65
2021/09/21 02:47:50;;;;;;;1.90;1.23;;;11.30;96.00;;;;;;5053413;28;20075;-66
2021/09/21 02:50:16;;;;;;;5.60;1.52;;;11.20;96.00;;;;;;5053051;28;20043;-66
2021/09/21 02:52:41;;;;;;;3.38;2.22;;;11.10;96.30;;;;;;5054401;28;20060;-68
2021/09/21 02:55:08;;;;;;;3.10;2.22;;;11.00;96.60;;;;;;5054396;28;20047;-68
2021/09/21 02:57:34;;;;;;;4.15;2.70;;;10.90;96.90;;;;;;5054602;28;20527;-68
2021/09/21 03:00:01;;;;;;;4.80;2.90;;;10.80;97.30;;;;;;5053087;28;20396;-68
2021/09/21 03:02:30;;;;;;;4.88;3.30;;;10.70;97.60;;;;;;5053442;28;20451;-68
2021/09/21 03:04:59;;;;;;;4.82;3.40;;;10.70;98.00;;;;;;5052785;28;20563;-70
2021/09/21 03:07:51;;;;;;;22.45;18.42;;;10.70;98.10;;;;;;5054268;28;20040;-67
2021/09/21 03:17:48;;;;;;;14.73;8.85;;;10.50;99.10;;;;;;5054185;28;20040;-69
2021/09/21 03:20:14;;;;;;;7.32;5.47;;;10.50;99.00;;;;;;5054555;28;20037;-69
2021/09/21 03:22:40;;;;;;;8.32;5.95;;;10.40;99.40;;;;;;5053895;28;20535;-68
2021/09/21 03:25:09;;;;;;;6.43;5.32;;;10.40;99.50;;;;;;5052649;28;20056;-68
2021/09/21 03:27:35;;;;;;;7.28;5.18;;;10.40;99.50;;;;;;5053894;28;20096;-68
2021/09/21 03:30:01;;;;;;;6.10;4.75;;;10.40;99.40;;;;;;5053764;28;20102;-68
2021/09/21 03:32:26;;;;;;;6.00;4.97;;;10.40;99.10;;;;;;5052305;28;20381;-69
2021/09/21 03:34:52;;;;;;;6.40;5.05;;;10.50;98.80;;;;;;5054148;28;20017;-68
2021/09/21 03:37:18;;;;;;;5.72;4.47;;;10.30;98.40;;;;;;5054099;28;20486;-68
2021/09/21 03:39:43;;;;;;;6.88;5.53;;;10.30;98.70;;;;;;5052549;28;20031;-68
2021/09/21 03:42:09;;;;;;;6.07;5.22;;;10.30;98.70;;;;;;5054130;28;20349;-68
2021/09/21 03:44:35;;;;;;;6.90;5.50;;;10.20;98.70;;;;;;5053730;28;20017;-68
2021/09/21 03:47:02;;;;;;;7.20;5.68;;;10.20;99.00;;;;;;5053581;28;20025;-69
2021/09/21 03:49:28;;;;;;;6.65;5.65;;;10.20;99.00;;;;;;5052060;28;20037;-68
2021/09/21 03:51:54;;;;;;;7.95;5.97;;;10.10;99.30;;;;;;5053354;28;20032;-68
2021/09/21 03:54:19;;;;;;;7.55;6.03;;;10.10;99.70;;;;;;5053387;28;20032;-68
2021/09/21 03:56:45;;;;;;;8.65;6.80;;;10.10;99.90;;;;;;5053712;28;20032;-69
2021/09/21 03:59:11;;;;;;;7.50;6.22;;;10.10;99.90;;;;;;5053765;28;20072;-68
2021/09/21 04:01:37;;;;;;;8.15;6.47;;;10.10;99.90;;;;;;5053213;28;20463;-68
2021/09/21 04:04:03;;;;;;;8.73;7.03;;;10.10;99.80;;;;;;5051945;28;20108;-69
2021/09/21 04:06:29;;;;;;;8.55;6.20;;;10.10;99.30;;;;;;5051994;28;20049;-69
2021/09/21 04:08:55;;;;;;;7.30;5.60;;;10.10;98.90;;;;;;5052246;28;20036;-69
2021/09/21 04:11:22;;;;;;;7.40;5.85;;;10.00;98.80;;;;;;5053295;28;20471;-70
2021/09/21 04:13:48;;;;;;;9.52;7.05;;;9.90;98.70;;;;;;5050211;28;20036;-69
2021/09/21 04:16:13;;;;;;;8.93;6.72;;;9.90;98.50;;;;;;5052073;28;20426;-69
2021/09/21 04:18:39;;;;;;;9.55;7.25;;;9.90;98.80;;;;;;5053427;28;20029;-69
2021/09/21 04:21:05;;;;;;;10.65;8.05;;;9.90;99.20;;;;;;5051962;28;20025;-68
2021/09/21 04:23:31;;;;;;;10.10;8.30;;;9.90;99.40;;;;;;5053159;28;20074;-69
2021/09/21 04:25:57;;;;;;;13.35;9.13;;;9.90;99.20;;;;;;5052237;28;20029;-69
2021/09/21 04:28:23;;;;;;;11.25;8.68;;;9.90;99.10;;;;;;5056715;28;20129;-69
2021/09/21 04:30:50;;;;;;;11.00;8.85;;;9.90;99.30;;;;;;5055555;28;20546;-69
2021/09/21 04:33:16;;;;;;;10.75;8.65;;;9.90;99.20;;;;;;5055693;28;20139;-69
2021/09/21 04:35:42;;;;;;;11.10;8.05;;;9.90;99.00;;;;;;5051659;28;20025;-71
2021/09/21 04:38:10;;;;;;;9.93;7.82;;;9.90;98.30;;;;;;5055323;28;20491;-71
2021/09/21 04:40:36;;;;;;;9.02;7.50;;;9.90;98.30;;;;;;5054536;28;20033;-72
2021/09/21 04:43:03;;;;;;;8.70;7.43;;;9.80;97.90;;;;;;5036639;28;20022;-70
2021/09/21 04:45:29;;;;;;;9.95;7.72;;;9.80;97.40;;;;;;5035232;28;20044;-71
2021/09/21 04:47:54;;;;;;;9.13;7.10;;;9.80;97.70;;;;;;5036794;28;20100;-70
2021/09/21 04:50:20;;;;;;;9.20;7.60;;;9.80;97.80;;;;;;5036963;28;20120;-69
2021/09/21 04:52:45;;;;;;;8.45;6.65;;;9.80;98.20;;;;;;5037129;28;20061;-71
2021/09/21 04:55:11;;;;;;;6.97;5.68;;;9.90;97.80;;;;;;5056549;28;20472;-71
2021/09/21 04:57:37;;;;;;;7.78;5.95;;;10.10;97.70;;;;;;5055029;28;20029;-70
2021/09/21 05:00:05;;;;;;;7.70;5.10;;;10.20;97.20;;;;;;5056111;28;20464;-72
2021/09/21 05:02:31;;;;;;;6.90;4.90;;;10.30;96.40;;;;;;5055053;28;20021;-71
2021/09/21 05:04:57;;;;;;;6.40;4.72;;;10.50;95.90;;;;;;5054567;28;20056;-70
2021/09/21 05:07:22;;;;;;;6.85;5.20;;;10.80;95.20;;;;;;5056167;28;20033;-69
2021/09/21 05:09:48;;;;;;;6.40;4.65;;;11.00;94.10;;;;;;5054973;28;20476;-71
2021/09/21 05:12:14;;;;;;;5.43;4.20;;;11.10;93.20;;;;;;5054853;28;20067;-71
2021/09/21 05:14:39;;;;;;;6.28;3.95;;;11.20;91.60;;;;;;5056088;28;20059;-68
2021/09/21 05:17:05;;;;;;;5.82;4.07;;;11.10;90.50;;;;;;5056032;28;20092;-68
2021/09/21 05:19:31;;;;;;;5.40;3.80;;;11.10;90.10;;;;;;5055121;28;20029;-70
2021/09/21 05:21:56;;;;;;;5.10;3.95;;;11.00;89.50;;;;;;5053582;28;20607;-71
2021/09/21 05:24:22;;;;;;;5.45;4.20;;;10.90;88.40;;;;;;5043408;28;20059;-69
2021/09/21 05:26:47;;;;;;;7.47;4.68;;;10.80;88.90;;;;;;5054868;28;20028;-70
2021/09/21 05:29:13;;;;;;;5.10;4.10;;;10.70;89.30;;;;;;5052361;28;20378;-68
2021/09/21 05:31:39;;;;;;;5.80;3.80;;;10.60;88.70;;;;;;5042713;28;20025;-72
2021/09/21 05:34:04;;;;;;;5.10;3.90;;;10.50;89.20;;;;;;5036240;28;20055;-69
2021/09/21 05:36:30;;;;;;;5.18;3.65;;;10.50;89.60;;;;;;5041698;28;20451;-71
2021/09/21 05:38:56;;;;;;;7.13;4.70;;;10.60;89.30;;;;;;5041466;28;20040;-71
2021/09/21 05:41:22;;;;;;;5.68;4.15;;;10.70;89.40;;;;;;5045306;28;20037;-75
2021/09/21 05:43:48;;;;;;;5.18;4.05;;;10.60;88.70;;;;;;5035356;28;20036;-71
2021/09/21 05:46:14;;;;;;;5.72;4.40;;;10.60;88.70;;;;;;5046439;28;20375;-73
2021/09/21 05:48:39;;;;;;;6.93;4.30;;;10.50;88.90;;;;;;5038548;28;20021;-71
2021/09/21 05:51:05;;;;;;;5.63;3.95;;;10.60;88.90;;;;;;5042286;28;20046;-71
2021/09/21 05:53:31;;;;;;;5.55;4.22;;;10.60;88.90;;;;;;5035779;28;20464;-71
2021/09/21 05:55:56;;;;;;;5.25;3.88;;;10.80;89.20;;;;;;5054142;28;20085;-74
2021/09/21 05:58:22;;;;;;;6.05;4.32;;;10.90;87.90;;;;;;5055364;28;20087;-73
2021/09/21 06:00:48;;;;;;;5.97;4.07;;;11.00;87.30;;;;;;5064589;28;20366;-70
2021/09/21 06:03:14;;;;;;;6.75;4.28;;;11.10;86.40;;;;;;5068564;28;20033;-74
2021/09/21 06:05:40;;;;;;;7.10;5.72;;;11.30;85.60;;;;;;5058520;28;20056;-71
2021/09/21 06:08:06;;;;;;;6.55;4.60;;;11.40;84.60;;;;;;5039670;28;20025;-71
2021/09/21 06:10:32;;;;;;;6.38;4.15;;;11.40;84.10;;;;;;5046546;28;20044;-71
2021/09/21 06:12:57;;;;;;;8.82;3.90;;;11.50;84.00;;;;;;5054043;28;20033;-71
2021/09/21 06:15:23;;;;;;;7.05;3.80;;;11.50;83.40;;;;;;5053243;28;20082;-71
2021/09/21 06:17:49;;;;;;;5.32;3.40;;;11.60;82.80;;;;;;5054272;28;20029;-71
2021/09/21 06:20:17;;;;;;;5.47;3.70;;;11.70;82.40;;;;;;5054463;28;20383;-71
2021/09/21 06:22:44;;;;;;;5.47;3.60;;;11.70;82.20;;;;;;5046684;28;20065;-71
2021/09/21 06:25:11;;;;;;;6.00;3.40;;;11.60;82.10;;;;;;5040671;28;20090;-72
2021/09/21 06:27:37;;;;;;;6.13;4.03;;;11.70;82.10;;;;;;5057316;28;20111;-69
2021/09/21 06:30:04;;;;;;;5.05;3.20;;;11.70;82.20;;;;;;5062981;28;20094;-69
2021/09/21 06:32:30;;;;;;;6.00;3.35;;;12.10;82.20;;;;;;5044293;28;20087;-75
2021/09/21 06:34:56;;;;;;;5.07;3.17;;;12.80;82.50;;;;;;5045386;28;20464;-67
2021/09/21 06:37:22;;;;;;;4.25;3.13;;;13.80;80.60;;;;;;5034960;28;20033;-75
2021/09/21 06:39:47;;;;;;;4.47;2.80;;;14.80;78.40;;;;;;5043966;28;20037;-68
2021/09/21 06:42:13;;;;;;;6.45;3.38;;;15.40;74.50;;;;;;5053407;28;20029;-66
2021/09/21 06:44:39;;;;;;;6.53;2.92;;;15.60;71.70;;;;;;5053472;28;20031;-67
2021/09/21 06:47:05;;;;;;;5.47;2.67;;;15.70;69.40;;;;;;5054779;28;20029;-66
2021/09/21 06:49:31;;;;;;;4.78;2.53;;;15.50;68.70;;;;;;5034560;28;20049;-67
2021/09/21 06:51:58;;;;;;;5.53;3.20;;;15.30;68.90;;;;;;5032801;28;20029;-67
2021/09/21 06:54:24;;;;;;;5.80;2.38;;;15.20;68.90;;;;;;5033580;28;20029;-64
2021/09/21 06:56:49;;;;;;;4.80;2.42;;;15.20;68.30;;;;;;5034540;28;20437;-65
2021/09/21 06:59:15;;;;;;;3.47;2.33;;;14.90;67.40;;;;;;5032721;28;20112;-65
2021/09/21 07:01:41;;;;;;;5.75;2.33;;;14.70;67.60;;;;;;5033786;28;20029;-68
2021/09/21 07:04:07;;;;;;;4.75;2.75;;;14.50;67.60;;;;;;5033871;28;20034;-67
2021/09/21 07:06:32;;;;;;;4.43;2.30;;;14.30;67.80;;;;;;5032590;28;20077;-68
2021/09/21 07:08:58;;;;;;;5.85;2.30;;;14.20;68.60;;;;;;5032716;28;20025;-66
2021/09/21 07:11:24;;;;;;;4.15;2.58;;;14.20;68.10;;;;;;5034340;28;20456;-64
2021/09/21 07:13:49;;;;;;;4.95;2.40;;;14.00;67.40;;;;;;5034140;28;20368;-65
2021/09/21 07:16:15;;;;;;;5.55;2.65;;;13.80;66.80;;;;;;5034206;28;20025;-65
2021/09/21 07:18:41;;;;;;;4.28;2.70;;;13.60;66.80;;;;;;5032854;28;20171;-65
2021/09/21 07:21:07;;;;;;;6.28;2.50;;;13.30;66.90;;;;;;5034158;28;20033;-68
2021/09/21 07:23:35;;;;;;;3.65;2.42;;;13.10;67.80;;;;;;5033973;28;20036;-65
2021/09/21 07:26:03;;;;;;;3.53;2.00;;;13.00;68.30;;;;;;5033816;28;20036;-66
2021/09/21 07:28:29;;;;;;;3.25;2.20;;;13.00;69.10;;;;;;5034097;28;20027;-65
2021/09/21 07:30:54;;;;;;;3.55;2.30;;;13.00;69.30;;;;;;5032516;28;20042;-65
2021/09/21 07:33:20;;;;;;;3.88;2.17;;;13.10;69.20;;;;;;5032722;28;20029;-66
2021/09/21 07:35:46;;;;;;;4.07;2.22;;;13.10;69.00;;;;;;5033956;28;20026;-68
2021/09/21 07:38:12;;;;;;;7.85;2.60;;;13.10;69.10;;;;;;5033974;28;20400;-66
2021/09/21 07:40:38;;;;;;;4.18;2.25;;;13.10;69.30;;;;;;5032530;28;20033;-65
2021/09/21 07:43:05;;;;;;;3.85;2.20;;;13.10;69.20;;;;;;5033702;28;20033;-65
2021/09/21 07:45:32;;;;;;;3.78;1.83;;;13.20;69.10;;;;;;5034009;28;20088;-65
2021/09/21 07:47:58;;;;;;;3.40;1.90;;;13.20;68.40;;;;;;5033752;28;20029;-66
2021/09/21 07:50:25;;;;;;;3.22;2.03;;;13.40;68.80;;;;;;5032170;28;20087;-69
2021/09/21 07:52:55;;;;;;;2.88;1.95;;;13.70;68.20;;;;;;5033472;28;20486;-65
2021/09/21 07:55:21;;;;;;;3.72;2.00;;;13.90;66.80;;;;;;5033745;28;20022;-65
2021/09/21 07:57:47;;;;;;;3.35;2.00;;;14.00;66.50;;;;;;5033848;28;20384;-66
2021/09/21 08:00:14;;;;;;;2.85;1.80;;;14.00;65.90;;;;;;5032325;28;20472;-65
2021/09/21 08:02:41;;;;;;;5.32;1.90;;;14.00;65.60;;;;;;5033650;28;20022;-66
2021/09/21 08:05:07;;;;;;;2.53;1.83;;;13.90;66.10;;;;;;5033622;28;20081;-66
2021/09/21 08:07:33;;;;;;;4.80;2.10;;;14.00;66.20;;;;;;5033855;28;20039;-65
2021/09/21 08:10:00;;;;;;;6.10;2.17;;;14.20;66.00;;;;;;5033510;28;20112;-66
2021/09/21 08:12:30;;;;;;;2.80;2.00;;;14.40;65.70;;;;;;5032179;28;20037;-66
2021/09/21 08:14:58;;;;;;;3.20;2.15;;;14.60;65.00;;;;;;5033471;28;20034;-65
2021/09/21 08:17:26;;;;;;;3.95;2.17;;;14.60;64.40;;;;;;5032233;28;20471;-67
2021/09/21 08:19:53;;;;;;;2.47;1.55;;;14.40;64.30;;;;;;5033502;28;20052;-66
2021/09/21 08:22:19;;;;;;;3.20;1.90;;;14.30;64.10;;;;;;5033238;28;20033;-65
2021/09/21 08:24:46;;;;;;;3.03;1.55;;;14.10;64.20;;;;;;5033184;28;20503;-65
2021/09/21 08:27:13;;;;;;;3.90;1.70;;;13.90;64.50;;;;;;5033536;28;20037;-65
2021/09/21 08:29:39;;;;;;;2.25;1.73;;;13.90;64.70;;;;;;5033537;28;20383;-65
2021/09/21 08:32:06;;;;;;;2.97;1.65;;;13.90;64.90;;;;;;5031816;28;20472;-67
2021/09/21 08:34:31;;;;;;;3.30;1.70;;;13.90;64.80;;;;;;5033061;28;20106;-65
2021/09/21 08:36:57;;;;;;;3.38;2.00;;;13.90;64.50;;;;;;5033815;28;20069;-66
2021/09/21 08:39:23;;;;;;;4.35;1.65;;;13.80;64.60;;;;;;5032063;28;20041;-66
2021/09/21 08:41:50;;;;;;;2.65;1.80;;;13.60;65.00;;;;;;5033589;28;20034;-66
2021/09/21 08:44:17;;;;;;;5.53;2.30;;;13.40;65.50;;;;;;5031873;28;20025;-66
2021/09/21 08:46:44;;;;;;;3.75;2.03;;;13.30;65.70;;;;;;5032063;28;20380;-65
2021/09/21 08:49:10;;;;;;;3.67;2.00;;;13.20;65.80;;;;;;5031794;28;20165;-65
2021/09/21 08:51:36;;;;;;;2.97;2.10;;;13.10;66.10;;;;;;5033046;28;20112;-66
2021/09/21 08:54:03;;;;;;;3.15;1.90;;;13.10;66.10;;;;;;5031959;28;20534;-66
2021/09/21 08:56:28;;;;;;;3.03;2.00;;;13.10;66.50;;;;;;5032870;28;20036;-68
2021/09/21 08:59:09;;;;;;;2.95;1.52;;;13.10;66.60;;;;;;5033383;28;20073;-65
2021/09/21 09:01:48;;;;;;;2.38;1.88;;;13.20;66.80;;;;;;5032825;28;20021;-67
2021/09/21 09:04:16;;;;;;;3.15;1.90;;;13.80;66.80;;;;;;5033042;28;20056;-65
2021/09/21 09:06:49;;;;;;;3.03;1.70;;;14.30;65.60;;;;;;5033062;28;20054;-66
2021/09/21 09:09:21;;;;;;;3.25;1.58;;;14.50;63.70;;;;;;5033301;28;20038;-66
2021/09/21 09:11:48;;;;;;;4.07;2.05;;;14.60;63.10;;;;;;5033148;28;20456;-67
2021/09/21 09:14:26;;;;;;;3.72;1.55;;;14.50;63.10;;;;;;5035273;28;20571;-66
2021/09/21 09:16:59;;;;;;;2.88;1.70;;;14.40;63.10;;;;;;5035804;28;20496;-65
2021/09/21 09:19:45;;;;;;;1.92;1.52;;;14.10;63.30;;;;;;5035681;28;20383;-65
2021/09/21 09:22:23;;;;;;;2.20;1.70;;;13.90;63.60;;;;;;5036269;28;20109;-66
2021/09/21 09:25:01;;;;;;;2.22;1.52;;;13.70;64.00;;;;;;5035099;28;20094;-66
2021/09/21 09:27:40;;;;;;;2.63;1.50;;;13.50;64.80;;;;;;5035154;28;20036;-66
2021/09/21 09:30:12;;;;;;;2.38;1.25;;;13.40;65.30;;;;;;5035125;28;20432;-66
2021/09/21 09:32:48;;;;;;;3.95;1.33;;;13.60;65.60;;;;;;5036310;28;20029;-65
2021/09/21 09:35:28;;;;;;;2.40;1.30;;;14.50;65.40;;;;;;5035122;28;20095;-66
2021/09/21 09:37:55;;;;;;;3.38;1.20;;;14.90;62.90;;;;;;5034886;28;20028;-65
2021/09/21 09:40:21;;;;;;;1.63;1.20;;;14.90;61.80;;;;;;5035882;28;20033;-66
2021/09/21 09:42:49;;;;;;;2.38;1.23;;;14.50;61.30;;;;;;5034488;28;20036;-67
2021/09/21 09:45:26;;;;;;;1.80;1.35;;;14.30;61.70;;;;;;5035847;28;20025;-65
2021/09/21 09:47:53;;;;;;;3.20;1.42;;;14.00;62.30;;;;;;5035752;28;20083;-65
2021/09/21 09:50:23;;;;;;;3.22;1.35;;;13.70;63.10;;;;;;5035822;28;20033;-66
2021/09/21 09:52:48;;;;;;;2.78;1.40;;;13.40;63.70;;;;;;5035636;28;20026;-65
2021/09/21 09:55:14;;;;;;;2.63;1.58;;;13.20;64.10;;;;;;5035845;28;20028;-65
2021/09/21 09:57:41;;;;;;;3.13;1.90;;;13.10;64.50;;;;;;5035711;28;20372;-66
2021/09/21 10:00:08;;;;;;;3.05;2.00;;;13.10;64.90;;;;;;5034340;28;20033;-67
2021/09/21 10:02:35;;;;;;;4.85;1.80;;;13.20;65.00;;;;;;5035616;28;20376;-66
2021/09/21 10:05:01;;;;;;;2.88;1.80;;;13.20;64.80;;;;;;5035772;28;20435;-65
2021/09/21 10:07:27;;;;;;;2.83;1.33;;;13.30;64.90;;;;;;5034453;28;20030;-66
2021/09/21 10:09:54;;;;;;;2.40;1.40;;;13.30;64.70;;;;;;5034205;28;20070;-66
2021/09/21 10:12:21;;;;;;;1.60;1.40;;;13.20;64.90;;;;;;5033957;28;20029;-66
2021/09/21 10:14:46;;;;;;;3.20;1.40;;;13.20;65.00;;;;;;5034129;28;20111;-66
2021/09/21 10:17:20;;;;;;;2.30;1.52;;;13.10;65.50;;;;;;5036078;28;20065;-66
2021/09/21 10:19:54;;;;;;;4.13;1.58;;;13.00;65.80;;;;;;5034271;28;20111;-65
2021/09/21 10:22:28;;;;;;;1.95;1.20;;;12.90;65.90;;;;;;5034351;28;20080;-66
2021/09/21 10:24:54;;;;;;;2.65;1.80;;;12.80;66.00;;;;;;5033912;28;20021;-66
2021/09/21 10:27:22;;;;;;;3.05;1.85;;;12.70;66.00;;;;;;5034857;28;20495;-66
2021/09/21 10:30:02;;;;;;;1.90;1.38;;;12.60;66.30;;;;;;5034015;28;20048;-67
2021/09/21 10:32:28;;;;;;;1.60;1.25;;;12.60;66.50;;;;;;5034936;28;20465;-67
2021/09/21 10:34:53;;;;;;;2.38;1.67;;;12.60;66.80;;;;;;5035077;28;20032;-68
2021/09/21 10:37:23;;;;;;;3.47;1.40;;;12.70;66.90;;;;;;5035110;28;20112;-66
2021/09/21 10:39:59;;;;;;;2.47;1.67;;;12.80;67.00;;;;;;5033371;28;20033;-66
2021/09/21 10:42:25;;;;;;;3.13;1.42;;;12.90;67.10;;;;;;5035072;28;20443;-66
2021/09/21 10:44:58;;;;;;;2.13;1.10;;;12.90;67.20;;;;;;5033477;28;20065;-65
2021/09/21 10:47:29;;;;;;;2.80;1.38;;;12.90;67.50;;;;;;5034781;28;20024;-66
2021/09/21 10:50:13;;;;;;;5.75;1.48;;;12.90;68.00;;;;;;5034467;28;20073;-67
2021/09/21 10:52:39;;;;;;;1.60;1.02;;;12.90;68.70;;;;;;5034716;28;20021;-67
2021/09/21 10:55:08;;;;;;;1.77;1.15;;;12.90;69.50;;;;;;5034643;28;20435;-66
2021/09/21 10:57:40;;;;;;;1.80;1.10;;;12.80;70.00;;;;;;5034465;28;20048;-66
2021/09/21 11:00:06;;;;;;;2.88;1.30;;;12.80;70.80;;;;;;5034439;28;20029;-66
2021/09/21 11:02:37;;;;;;;1.95;1.23;;;12.90;71.00;;;;;;5034283;28;20095;-65
2021/09/21 11:05:09;;;;;;;2.05;1.17;;;12.90;71.20;;;;;;5032952;28;20045;-66
2021/09/21 11:07:37;;;;;;;1.90;1.02;;;13.00;71.10;;;;;;5034553;28;20032;-66
2021/09/21 11:10:05;;;;;;;1.67;1.10;;;13.10;70.40;;;;;;5032911;28;20045;-66
2021/09/21 11:12:31;;;;;;;1.55;1.10;;;13.20;69.40;;;;;;5032869;28;20493;-66
2021/09/21 11:15:05;;;;;;;1.30;0.98;;;13.40;69.10;;;;;;5032935;28;20372;-66
2021/09/21 11:17:31;;;;;;;2.30;1.35;;;13.40;68.50;;;;;;5032914;28;20056;-66
2021/09/21 11:19:57;;;;;;;1.88;1.30;;;13.60;67.90;;;;;;5034174;28;20076;-66
2021/09/21 11:22:29;;;;;;;2.17;1.10;;;13.80;67.30;;;;;;5032939;28;20121;-66
2021/09/21 11:25:01;;;;;;;4.65;1.40;;;14.00;66.40;;;;;;5034128;28;20017;-68
2021/09/21 11:27:27;;;;;;;4.05;1.42;;;14.20;65.50;;;;;;5032783;28;20037;-66
2021/09/21 11:30:00;;;;;;;1.90;1.27;;;14.70;65.00;;;;;;5034050;28;20069;-66
2021/09/21 11:32:26;;;;;;;1.95;1.42;;;15.10;63.70;;;;;;5034029;28;20464;-66
2021/09/21 11:35:00;;;;;;;3.80;1.58;;;15.10;63.00;;;;;;5033296;28;20034;-66
2021/09/21 11:37:27;;;;;;;2.80;1.60;;;15.10;62.30;;;;;;5032907;28;20029;-66
2021/09/21 11:39:53;;;;;;;1.20;1.10;;;15.00;62.50;;;;;;5033703;28;20033;-67
2021/09/21 11:42:25;;;;;;;1.80;1.55;;;14.90;62.60;;;;;;5033613;28;20479;-66
2021/09/21 11:45:03;;;;;;;2.85;1.50;;;14.70;62.80;;;;;;5033770;28;20021;-65
2021/09/21 11:47:36;;;;;;;3.25;1.67;;;14.50;63.30;;;;;;5032762;28;20044;-66
2021/09/21 11:50:06;;;;;;;2.38;1.58;;;14.30;63.80;;;;;;5033659;28;20113;-66
2021/09/21 11:52:32;;;;;;;2.95;1.48;;;14.00;64.30;;;;;;5033402;28;20026;-67
2021/09/21 11:54:58;;;;;;;3.17;1.65;;;13.80;64.70;;;;;;5032443;28;20056;-66
2021/09/21 11:57:24;;;;;;;3.25;1.77;;;13.40;65.20;;;;;;5033703;28;20022;-66
2021/09/21 11:59:50;;;;;;;5.30;1.70;;;13.20;65.80;;;;;;5033719;28;20025;-66
2021/09/21 12:02:18;;;;;;;3.83;1.83;;;13.00;66.30;;;;;;5033411;28;20475;-66
2021/09/21 12:04:46;;;;;;;3.83;1.90;;;12.80;66.70;;;;;;5033676;28;20116;-66
2021/09/21 12:07:12;;;;;;;4.53;2.00;;;12.60;66.80;;;;;;5033597;28;20038;-65
2021/09/21 12:09:39;;;;;;;2.72;1.50;;;12.50;67.30;;;;;;5033501;28;20029;-66
2021/09/21 12:12:18;;;;;;;2.67;1.33;;;12.50;67.30;;;;;;5033464;28;20021;-66
2021/09/21 12:14:58;;;;;;;7.68;4.65;;;12.70;67.30;;;;;;5032556;28;20479;-66
2021/09/21 12:17:25;;;;;;;4.95;1.95;;;12.90;66.80;;;;;;5033217;28;20022;-67
2021/09/21 12:20:01;;;;;;;2.78;1.80;;;13.00;66.50;;;;;;5033399;28;20468;-65
2021/09/21 12:22:28;;;;;;;1.85;1.40;;;13.10;66.20;;;;;;5033695;28;20112;-66
2021/09/21 12:25:11;;;;;;;2.65;1.45;;;13.20;65.60;;;;;;5033786;28;20025;-66
2021/09/21 12:27:38;;;;;;;3.30;1.58;;;13.20;65.40;;;;;;5032397;28;20091;-66
2021/09/21 12:30:09;;;;;;;2.00;1.40;;;13.00;65.20;;;;;;5033302;28;20033;-66
2021/09/21 12:32:35;;;;;;;2.17;1.70;;;12.90;65.60;;;;;;5031748;28;20025;-66
2021/09/21 12:35:04;;;;;;;1.85;1.35;;;12.60;66.00;;;;;;5032097;28;20028;-66
2021/09/21 12:37:41;;;;;;;2.42;1.70;;;12.50;66.60;;;;;;5033354;28;20052;-65
2021/09/21 12:40:08;;;;;;;3.97;1.98;;;12.40;67.20;;;;;;5032181;28;20029;-66
2021/09/21 12:42:35;;;;;;;3.30;2.20;;;12.30;67.60;;;;;;5033183;28;20030;-65
2021/09/21 12:45:03;;;;;;;4.88;1.90;;;12.40;68.20;;;;;;5032425;28;20453;-65
2021/09/21 12:47:29;;;;;;;4.85;2.33;;;12.50;68.40;;;;;;5034659;28;20061;-66
2021/09/21 12:49:55;;;;;;;4.32;2.25;;;12.50;68.10;;;;;;5036870;28;20068;-66
2021/09/21 12:52:30;;;;;;;3.53;1.90;;;12.50;67.80;;;;;;5035819;28;20456;-65
2021/09/21 12:54:57;;;;;;;;;;;12.50;67.50;;;;;;5037393;28;20467;-68
2021/09/21 12:57:23;;;;;;;2.63;1.70;;;12.40;67.60;;;;;;5036722;28;20421;-66
2021/09/21 12:59:53;;;;;;;3.70;1.90;;;12.20;67.90;;;;;;5036786;28;20034;-66
2021/09/21 13:02:19;;;;;;;3.45;1.58;;;12.10;68.60;;;;;;5037107;28;20375;-65